sensor_id;sensor_type;location;lat;lon;timestamp;temperature;humidity
4602;DHT22;2313;48.552;9.370;2022-11-20T00:00:50;6.30;99.90
4602;DHT22;2313;48.552;9.370;2022-11-20T00:03:16;6.30;99.90
4602;DHT22;2313;48.552;9.370;2022-11-20T00:05:43;6.30;99.90
4602;DHT22;2313;48.552;9.370;2022-11-20T00:08:08;6.30;99.90
4602;DHT22;2313;48.552;9.370;2022-11-20T00:10:39;6.20;99.90
4602;DHT22;2313;48.552;9.370;2022-11-20T00:13:05;6.20;99.90
4602;DHT22;2313;48.552;9.370;2022-11-20T00:15:31;6.20;99.90
4602;DHT22;2313;48.552;9.370;2022-11-20T00:17:57;6.20;99.90
4602;DHT22;2313;48.552;9.370;2022-11-20T00:20:22;6.20;99.90
4602;DHT22;2313;48.552;9.370;2022-11-20T00:22:49;6.20;99.90
4602;DHT22;2313;48.552;9.370;2022-11-20T00:25:15;6.10;99.90
4602;DHT22;2313;48.552;9.370;2022-11-20T00:27:40;6.10;99.90
4602;DHT22;2313;48.552;9.370;2022-11-20T00:30:06;6.20;99.90
4602;DHT22;2313;48.552;9.370;2022-11-20T00:32:32;6.10;99.90
4602;DHT22;2313;48.552;9.370;2022-11-20T00:34:58;6.10;99.90
4602;DHT22;2313;48.552;9.370;2022-11-20T00:37:24;6.10;99.90
4602;DHT22;2313;48.552;9.370;2022-11-20T00:39:49;6.10;99.90
4602;DHT22;2313;48.552;9.370;2022-11-20T00:42:15;6.10;99.90
4602;DHT22;2313;48.552;9.370;2022-11-20T00:44:40;6.10;99.90
4602;DHT22;2313;48.552;9.370;2022-11-20T00:47:06;6.00;99.90
4602;DHT22;2313;48.552;9.370;2022-11-20T00:49:32;6.00;99.90
4602;DHT22;2313;48.552;9.370;2022-11-20T00:51:57;6.00;99.90
4602;DHT22;2313;48.552;9.370;2022-11-20T00:54:23;6.00;99.90
4602;DHT22;2313;48.552;9.370;2022-11-20T00:56:48;5.90;99.90
4602;DHT22;2313;48.552;9.370;2022-11-20T00:59:14;5.90;99.90
4602;DHT22;2313;48.552;9.370;2022-11-20T01:01:39;5.90;99.90
4602;DHT22;2313;48.552;9.370;2022-11-20T01:04:05;5.90;99.90
4602;DHT22;2313;48.552;9.370;2022-11-20T01:06:36;6.10;99.90
4602;DHT22;2313;48.552;9.370;2022-11-20T01:09:11;5.90;99.90
4602;DHT22;2313;48.552;9.370;2022-11-20T01:11:43;5.90;99.90
4602;DHT22;2313;48.552;9.370;2022-11-20T01:14:15;5.90;99.90
4602;DHT22;2313;48.552;9.370;2022-11-20T01:16:46;5.90;99.90
4602;DHT22;2313;48.552;9.370;2022-11-20T01:19:16;5.90;99.90
4602;DHT22;2313;48.552;9.370;2022-11-20T01:21:43;5.90;99.90
4602;DHT22;2313;48.552;9.370;2022-11-20T01:24:12;6.00;99.90
4602;DHT22;2313;48.552;9.370;2022-11-20T01:26:39;6.00;99.90
4602;DHT22;2313;48.552;9.370;2022-11-20T01:29:06;5.80;99.90
4602;DHT22;2313;48.552;9.370;2022-11-20T01:31:34;5.80;99.90
4602;DHT22;2313;48.552;9.370;2022-11-20T01:34:05;5.80;99.90
4602;DHT22;2313;48.552;9.370;2022-11-20T01:36:33;5.80;99.90
4602;DHT22;2313;48.552;9.370;2022-11-20T01:39:01;5.80;99.90
4602;DHT22;2313;48.552;9.370;2022-11-20T01:41:29;5.80;99.90
4602;DHT22;2313;48.552;9.370;2022-11-20T01:44:15;5.80;99.90
4602;DHT22;2313;48.552;9.370;2022-11-20T01:49:29;5.70;99.90
4602;DHT22;2313;48.552;9.370;2022-11-20T01:52:01;5.70;99.90
4602;DHT22;2313;48.552;9.370;2022-11-20T01:54:33;5.70;99.90
4602;DHT22;2313;48.552;9.370;2022-11-20T01:57:02;5.70;99.90
4602;DHT22;2313;48.552;9.370;2022-11-20T01:59:29;5.70;99.90
4602;DHT22;2313;48.552;9.370;2022-11-20T02:01:55;5.60;99.90
4602;DHT22;2313;48.552;9.370;2022-11-20T02:04:21;5.60;99.90
4602;DHT22;2313;48.552;9.370;2022-11-20T02:07:00;5.60;99.90
4602;DHT22;2313;48.552;9.370;2022-11-20T02:09:27;5.50;99.90
4602;DHT22;2313;48.552;9.370;2022-11-20T02:11:53;5.50;99.90
4602;DHT22;2313;48.552;9.370;2022-11-20T02:14:20;5.50;99.90
4602;DHT22;2313;48.552;9.370;2022-11-20T02:16:48;5.40;99.90
4602;DHT22;2313;48.552;9.370;2022-11-20T02:19:23;5.50;99.90
4602;DHT22;2313;48.552;9.370;2022-11-20T02:24:32;5.50;99.90
4602;DHT22;2313;48.552;9.370;2022-11-20T02:27:04;5.60;99.90
4602;DHT22;2313;48.552;9.370;2022-11-20T02:30:00;5.60;99.90
4602;DHT22;2313;48.552;9.370;2022-11-20T02:32:33;5.60;99.90
4602;DHT22;2313;48.552;9.370;2022-11-20T02:37:46;5.70;99.90
4602;DHT22;2313;48.552;9.370;2022-11-20T02:40:13;5.70;99.90
4602;DHT22;2313;48.552;9.370;2022-11-20T02:42:40;5.70;99.90
4602;DHT22;2313;48.552;9.370;2022-11-20T02:45:06;5.70;99.90
4602;DHT22;2313;48.552;9.370;2022-11-20T02:47:32;5.70;99.90
4602;DHT22;2313;48.552;9.370;2022-11-20T02:49:58;5.80;99.90
4602;DHT22;2313;48.552;9.370;2022-11-20T02:52:24;5.80;99.90
4602;DHT22;2313;48.552;9.370;2022-11-20T02:54:50;5.80;99.90
4602;DHT22;2313;48.552;9.370;2022-11-20T02:57:15;5.70;99.90
4602;DHT22;2313;48.552;9.370;2022-11-20T02:59:41;5.70;99.90
4602;DHT22;2313;48.552;9.370;2022-11-20T03:02:07;5.80;99.90
4602;DHT22;2313;48.552;9.370;2022-11-20T03:04:32;5.90;99.90
4602;DHT22;2313;48.552;9.370;2022-11-20T03:06:58;5.80;99.90
4602;DHT22;2313;48.552;9.370;2022-11-20T03:09:24;5.80;99.90
4602;DHT22;2313;48.552;9.370;2022-11-20T03:11:49;5.80;99.90
4602;DHT22;2313;48.552;9.370;2022-11-20T03:14:15;5.80;99.90
4602;DHT22;2313;48.552;9.370;2022-11-20T03:16:40;5.80;99.90
4602;DHT22;2313;48.552;9.370;2022-11-20T03:19:06;5.80;99.90
4602;DHT22;2313;48.552;9.370;2022-11-20T03:21:35;5.80;99.90
4602;DHT22;2313;48.552;9.370;2022-11-20T03:24:01;5.70;99.90
4602;DHT22;2313;48.552;9.370;2022-11-20T03:26:27;5.70;99.90
4602;DHT22;2313;48.552;9.370;2022-11-20T03:28:58;5.70;99.90
4602;DHT22;2313;48.552;9.370;2022-11-20T03:31:26;5.80;99.90
4602;DHT22;2313;48.552;9.370;2022-11-20T03:33:52;5.80;99.90
4602;DHT22;2313;48.552;9.370;2022-11-20T03:36:19;5.80;99.90
4602;DHT22;2313;48.552;9.370;2022-11-20T03:38:46;5.80;99.90
4602;DHT22;2313;48.552;9.370;2022-11-20T03:41:15;5.80;99.90
4602;DHT22;2313;48.552;9.370;2022-11-20T03:43:41;5.80;99.90
4602;DHT22;2313;48.552;9.370;2022-11-20T03:46:07;5.80;99.90
4602;DHT22;2313;48.552;9.370;2022-11-20T03:48:33;5.80;99.90
4602;DHT22;2313;48.552;9.370;2022-11-20T03:51:16;5.80;99.90
4602;DHT22;2313;48.552;9.370;2022-11-20T03:53:44;5.80;99.90
4602;DHT22;2313;48.552;9.370;2022-11-20T03:56:11;5.80;99.90
4602;DHT22;2313;48.552;9.370;2022-11-20T03:58:38;5.80;99.90
4602;DHT22;2313;48.552;9.370;2022-11-20T04:03:37;5.90;99.90
4602;DHT22;2313;48.552;9.370;2022-11-20T04:06:12;5.90;99.90
4602;DHT22;2313;48.552;9.370;2022-11-20T04:08:38;5.90;99.90
4602;DHT22;2313;48.552;9.370;2022-11-20T04:11:17;6.00;99.90
4602;DHT22;2313;48.552;9.370;2022-11-20T04:13:46;6.10;99.90
4602;DHT22;2313;48.552;9.370;2022-11-20T04:16:12;6.10;99.90
4602;DHT22;2313;48.552;9.370;2022-11-20T04:18:38;6.00;99.90
4602;DHT22;2313;48.552;9.370;2022-11-20T04:21:05;6.10;99.90
4602;DHT22;2313;48.552;9.370;2022-11-20T04:23:31;6.10;99.90
4602;DHT22;2313;48.552;9.370;2022-11-20T04:26:06;6.10;99.90
4602;DHT22;2313;48.552;9.370;2022-11-20T04:28:32;6.10;99.90
4602;DHT22;2313;48.552;9.370;2022-11-20T04:31:12;6.10;99.90
4602;DHT22;2313;48.552;9.370;2022-11-20T04:33:38;6.10;99.90
4602;DHT22;2313;48.552;9.370;2022-11-20T04:36:06;6.00;99.90
4602;DHT22;2313;48.552;9.370;2022-11-20T04:38:32;6.10;99.90
4602;DHT22;2313;48.552;9.370;2022-11-20T04:41:03;6.10;99.90
4602;DHT22;2313;48.552;9.370;2022-11-20T04:43:29;6.10;99.90
4602;DHT22;2313;48.552;9.370;2022-11-20T04:45:56;6.10;99.90
4602;DHT22;2313;48.552;9.370;2022-11-20T04:48:22;6.40;99.90
4602;DHT22;2313;48.552;9.370;2022-11-20T04:50:48;6.20;99.90
4602;DHT22;2313;48.552;9.370;2022-11-20T04:53:14;6.20;99.90
4602;DHT22;2313;48.552;9.370;2022-11-20T04:55:39;6.20;99.90
4602;DHT22;2313;48.552;9.370;2022-11-20T04:58:06;6.20;99.90
4602;DHT22;2313;48.552;9.370;2022-11-20T05:00:32;6.20;99.90
4602;DHT22;2313;48.552;9.370;2022-11-20T05:02:58;6.20;99.90
4602;DHT22;2313;48.552;9.370;2022-11-20T05:05:23;6.20;99.90
4602;DHT22;2313;48.552;9.370;2022-11-20T05:07:49;6.20;99.90
4602;DHT22;2313;48.552;9.370;2022-11-20T05:10:15;6.20;99.90
4602;DHT22;2313;48.552;9.370;2022-11-20T05:12:41;6.20;99.90
4602;DHT22;2313;48.552;9.370;2022-11-20T05:15:06;6.20;99.90
4602;DHT22;2313;48.552;9.370;2022-11-20T05:17:32;6.20;99.90
4602;DHT22;2313;48.552;9.370;2022-11-20T05:19:58;6.20;99.90
4602;DHT22;2313;48.552;9.370;2022-11-20T05:22:23;6.30;99.90
4602;DHT22;2313;48.552;9.370;2022-11-20T05:24:49;6.20;99.90
4602;DHT22;2313;48.552;9.370;2022-11-20T05:27:15;6.30;99.90
4602;DHT22;2313;48.552;9.370;2022-11-20T05:29:40;6.20;99.90
4602;DHT22;2313;48.552;9.370;2022-11-20T05:32:06;6.30;99.90
4602;DHT22;2313;48.552;9.370;2022-11-20T05:34:35;6.40;99.90
4602;DHT22;2313;48.552;9.370;2022-11-20T05:37:00;6.30;99.90
4602;DHT22;2313;48.552;9.370;2022-11-20T05:39:26;6.20;99.90
4602;DHT22;2313;48.552;9.370;2022-11-20T05:41:52;6.20;99.90
4602;DHT22;2313;48.552;9.370;2022-11-20T05:44:37;6.30;99.90
4602;DHT22;2313;48.552;9.370;2022-11-20T05:47:03;6.30;99.90
4602;DHT22;2313;48.552;9.370;2022-11-20T05:49:28;6.30;99.90
4602;DHT22;2313;48.552;9.370;2022-11-20T05:51:54;6.30;99.90
4602;DHT22;2313;48.552;9.370;2022-11-20T05:54:20;6.30;99.90
4602;DHT22;2313;48.552;9.370;2022-11-20T05:56:45;6.30;99.90
4602;DHT22;2313;48.552;9.370;2022-11-20T05:59:11;6.40;99.90
4602;DHT22;2313;48.552;9.370;2022-11-20T06:01:36;6.40;99.90
4602;DHT22;2313;48.552;9.370;2022-11-20T06:04:02;6.40;99.90
4602;DHT22;2313;48.552;9.370;2022-11-20T06:06:28;6.30;99.90
4602;DHT22;2313;48.552;9.370;2022-11-20T06:08:54;6.30;99.90
4602;DHT22;2313;48.552;9.370;2022-11-20T06:11:20;6.40;99.90
4602;DHT22;2313;48.552;9.370;2022-11-20T06:13:46;6.40;99.90
4602;DHT22;2313;48.552;9.370;2022-11-20T06:16:14;6.30;99.90
4602;DHT22;2313;48.552;9.370;2022-11-20T06:18:40;6.30;99.90
4602;DHT22;2313;48.552;9.370;2022-11-20T06:21:06;6.30;99.90
4602;DHT22;2313;48.552;9.370;2022-11-20T06:23:33;6.30;99.90
4602;DHT22;2313;48.552;9.370;2022-11-20T06:26:04;6.30;99.90
4602;DHT22;2313;48.552;9.370;2022-11-20T06:28:30;6.30;99.90
4602;DHT22;2313;48.552;9.370;2022-11-20T06:30:55;6.30;99.90
4602;DHT22;2313;48.552;9.370;2022-11-20T06:33:21;6.20;99.90
4602;DHT22;2313;48.552;9.370;2022-11-20T06:35:47;6.20;99.90
4602;DHT22;2313;48.552;9.370;2022-11-20T06:38:12;6.20;99.90
4602;DHT22;2313;48.552;9.370;2022-11-20T06:40:40;6.20;99.90
4602;DHT22;2313;48.552;9.370;2022-11-20T06:43:06;6.20;99.90
4602;DHT22;2313;48.552;9.370;2022-11-20T06:45:32;6.20;99.90
4602;DHT22;2313;48.552;9.370;2022-11-20T06:47:58;6.20;99.90
4602;DHT22;2313;48.552;9.370;2022-11-20T06:50:24;6.20;99.90
4602;DHT22;2313;48.552;9.370;2022-11-20T06:52:49;6.20;99.90
4602;DHT22;2313;48.552;9.370;2022-11-20T06:55:15;6.20;99.90
4602;DHT22;2313;48.552;9.370;2022-11-20T06:57:40;6.20;99.90
4602;DHT22;2313;48.552;9.370;2022-11-20T07:00:07;6.20;99.90
4602;DHT22;2313;48.552;9.370;2022-11-20T07:02:32;6.20;99.90
4602;DHT22;2313;48.552;9.370;2022-11-20T07:04:58;6.20;99.90
4602;DHT22;2313;48.552;9.370;2022-11-20T07:07:23;6.20;99.90
4602;DHT22;2313;48.552;9.370;2022-11-20T07:09:49;6.20;99.90
4602;DHT22;2313;48.552;9.370;2022-11-20T07:12:15;6.20;99.90
4602;DHT22;2313;48.552;9.370;2022-11-20T07:14:40;6.20;99.90
4602;DHT22;2313;48.552;9.370;2022-11-20T07:17:06;6.20;99.90
4602;DHT22;2313;48.552;9.370;2022-11-20T07:19:31;6.20;99.90
4602;DHT22;2313;48.552;9.370;2022-11-20T07:21:57;6.30;99.90
4602;DHT22;2313;48.552;9.370;2022-11-20T07:24:23;6.30;99.90
4602;DHT22;2313;48.552;9.370;2022-11-20T07:26:48;6.20;99.90
4602;DHT22;2313;48.552;9.370;2022-11-20T07:29:15;6.20;99.90
4602;DHT22;2313;48.552;9.370;2022-11-20T07:31:40;6.30;99.90
4602;DHT22;2313;48.552;9.370;2022-11-20T07:34:06;6.30;99.90
4602;DHT22;2313;48.552;9.370;2022-11-20T07:36:32;6.30;99.90
4602;DHT22;2313;48.552;9.370;2022-11-20T07:38:57;6.40;99.90
4602;DHT22;2313;48.552;9.370;2022-11-20T07:41:23;6.40;99.90
4602;DHT22;2313;48.552;9.370;2022-11-20T07:43:48;6.50;99.90
4602;DHT22;2313;48.552;9.370;2022-11-20T07:46:14;6.50;99.90
4602;DHT22;2313;48.552;9.370;2022-11-20T07:48:39;6.50;99.90
4602;DHT22;2313;48.552;9.370;2022-11-20T07:51:05;6.50;99.90
4602;DHT22;2313;48.552;9.370;2022-11-20T07:53:31;6.50;99.90
4602;DHT22;2313;48.552;9.370;2022-11-20T07:56:00;6.50;99.90
4602;DHT22;2313;48.552;9.370;2022-11-20T07:58:26;6.50;99.90
4602;DHT22;2313;48.552;9.370;2022-11-20T08:00:51;6.50;99.90
4602;DHT22;2313;48.552;9.370;2022-11-20T08:03:17;6.50;99.90
4602;DHT22;2313;48.552;9.370;2022-11-20T08:05:43;6.50;99.90
4602;DHT22;2313;48.552;9.370;2022-11-20T08:08:08;6.50;99.90
4602;DHT22;2313;48.552;9.370;2022-11-20T08:10:34;6.50;99.90
4602;DHT22;2313;48.552;9.370;2022-11-20T08:12:59;6.70;99.90
4602;DHT22;2313;48.552;9.370;2022-11-20T08:15:48;6.80;99.90
4602;DHT22;2313;48.552;9.370;2022-11-20T08:18:15;6.80;99.90
4602;DHT22;2313;48.552;9.370;2022-11-20T08:20:41;6.80;99.90
4602;DHT22;2313;48.552;9.370;2022-11-20T08:23:07;6.90;99.90
4602;DHT22;2313;48.552;9.370;2022-11-20T08:25:34;6.90;99.90
4602;DHT22;2313;48.552;9.370;2022-11-20T08:28:01;6.90;99.90
4602;DHT22;2313;48.552;9.370;2022-11-20T08:30:27;7.00;99.90
4602;DHT22;2313;48.552;9.370;2022-11-20T08:32:53;7.10;99.90
4602;DHT22;2313;48.552;9.370;2022-11-20T08:35:19;6.90;99.90
4602;DHT22;2313;48.552;9.370;2022-11-20T08:37:48;7.00;99.90
4602;DHT22;2313;48.552;9.370;2022-11-20T08:40:15;7.00;99.90
4602;DHT22;2313;48.552;9.370;2022-11-20T08:42:50;7.00;99.90
4602;DHT22;2313;48.552;9.370;2022-11-20T08:45:17;7.10;99.90
4602;DHT22;2313;48.552;9.370;2022-11-20T08:47:43;7.10;99.90
4602;DHT22;2313;48.552;9.370;2022-11-20T08:50:14;7.10;99.90
4602;DHT22;2313;48.552;9.370;2022-11-20T08:52:40;7.00;99.90
4602;DHT22;2313;48.552;9.370;2022-11-20T08:55:07;7.00;99.90
4602;DHT22;2313;48.552;9.370;2022-11-20T08:57:34;7.10;99.90
4602;DHT22;2313;48.552;9.370;2022-11-20T09:00:01;6.90;99.90
4602;DHT22;2313;48.552;9.370;2022-11-20T09:02:26;7.00;99.90
4602;DHT22;2313;48.552;9.370;2022-11-20T09:04:52;7.00;99.90
4602;DHT22;2313;48.552;9.370;2022-11-20T09:07:19;7.20;99.90
4602;DHT22;2313;48.552;9.370;2022-11-20T09:09:45;7.00;99.90
4602;DHT22;2313;48.552;9.370;2022-11-20T09:12:10;7.10;99.90
4602;DHT22;2313;48.552;9.370;2022-11-20T09:14:36;7.00;99.90
4602;DHT22;2313;48.552;9.370;2022-11-20T09:17:02;7.00;99.90
4602;DHT22;2313;48.552;9.370;2022-11-20T09:19:27;7.10;99.90
4602;DHT22;2313;48.552;9.370;2022-11-20T09:21:53;7.10;99.90
4602;DHT22;2313;48.552;9.370;2022-11-20T09:24:19;7.10;99.90
4602;DHT22;2313;48.552;9.370;2022-11-20T09:26:46;7.30;99.90
4602;DHT22;2313;48.552;9.370;2022-11-20T09:29:12;7.20;99.90
4602;DHT22;2313;48.552;9.370;2022-11-20T09:31:37;7.20;99.90
4602;DHT22;2313;48.552;9.370;2022-11-20T09:34:03;7.10;99.90
4602;DHT22;2313;48.552;9.370;2022-11-20T09:36:29;7.20;99.90
4602;DHT22;2313;48.552;9.370;2022-11-20T09:38:54;7.10;99.90
4602;DHT22;2313;48.552;9.370;2022-11-20T09:44:28;7.30;99.90
4602;DHT22;2313;48.552;9.370;2022-11-20T09:55:34;7.10;99.90
4602;DHT22;2313;48.552;9.370;2022-11-20T09:58:02;7.20;99.90
4602;DHT22;2313;48.552;9.370;2022-11-20T10:00:31;7.10;99.90
4602;DHT22;2313;48.552;9.370;2022-11-20T10:03:14;7.10;99.90
4602;DHT22;2313;48.552;9.370;2022-11-20T10:05:46;7.00;99.90
4602;DHT22;2313;48.552;9.370;2022-11-20T10:08:33;7.00;99.90
4602;DHT22;2313;48.552;9.370;2022-11-20T10:16:21;7.00;99.90
4602;DHT22;2313;48.552;9.370;2022-11-20T10:25:01;7.10;99.90
4602;DHT22;2313;48.552;9.370;2022-11-20T10:27:51;7.00;99.90
4602;DHT22;2313;48.552;9.370;2022-11-20T10:30:21;7.00;99.90
4602;DHT22;2313;48.552;9.370;2022-11-20T10:32:56;7.00;99.90
4602;DHT22;2313;48.552;9.370;2022-11-20T10:35:48;7.00;99.90
4602;DHT22;2313;48.552;9.370;2022-11-20T10:38:25;7.00;99.90
4602;DHT22;2313;48.552;9.370;2022-11-20T10:40:59;6.90;99.90
4602;DHT22;2313;48.552;9.370;2022-11-20T10:43:46;7.00;99.90
4602;DHT22;2313;48.552;9.370;2022-11-20T10:46:43;6.90;99.90
4602;DHT22;2313;48.552;9.370;2022-11-20T10:49:18;6.90;99.90
4602;DHT22;2313;48.552;9.370;2022-11-20T10:51:59;6.80;99.90
4602;DHT22;2313;48.552;9.370;2022-11-20T11:00:05;6.90;99.90
4602;DHT22;2313;48.552;9.370;2022-11-20T11:02:35;6.90;99.90
4602;DHT22;2313;48.552;9.370;2022-11-20T11:05:17;6.90;99.90
4602;DHT22;2313;48.552;9.370;2022-11-20T11:07:54;7.10;99.90
4602;DHT22;2313;48.552;9.370;2022-11-20T11:11:46;7.00;99.90
4602;DHT22;2313;48.552;9.370;2022-11-20T11:13:41;7.00;99.90
4602;DHT22;2313;48.552;9.370;2022-11-20T11:16:24;7.10;99.90
4602;DHT22;2313;48.552;9.370;2022-11-20T11:18:50;7.00;99.90
4602;DHT22;2313;48.552;9.370;2022-11-20T11:21:24;7.10;99.90
4602;DHT22;2313;48.552;9.370;2022-11-20T11:24:01;7.10;99.90
4602;DHT22;2313;48.552;9.370;2022-11-20T11:26:28;7.20;99.90
4602;DHT22;2313;48.552;9.370;2022-11-20T11:29:01;7.30;99.90
4602;DHT22;2313;48.552;9.370;2022-11-20T11:34:14;7.20;99.90
4602;DHT22;2313;48.552;9.370;2022-11-20T11:36:41;7.20;99.90
4602;DHT22;2313;48.552;9.370;2022-11-20T11:39:16;7.30;99.90
4602;DHT22;2313;48.552;9.370;2022-11-20T11:41:43;7.30;99.90
4602;DHT22;2313;48.552;9.370;2022-11-20T11:46:59;7.50;99.90
4602;DHT22;2313;48.552;9.370;2022-11-20T11:49:25;7.60;99.90
4602;DHT22;2313;48.552;9.370;2022-11-20T11:56:51;8.20;99.90
4602;DHT22;2313;48.552;9.370;2022-11-20T12:02:09;8.40;99.90
4602;DHT22;2313;48.552;9.370;2022-11-20T12:04:52;8.50;99.90
4602;DHT22;2313;48.552;9.370;2022-11-20T12:09:54;8.30;99.90
4602;DHT22;2313;48.552;9.370;2022-11-20T12:15:29;8.40;99.90
4602;DHT22;2313;48.552;9.370;2022-11-20T12:17:55;8.50;99.90
4602;DHT22;2313;48.552;9.370;2022-11-20T12:20:26;8.20;99.90
4602;DHT22;2313;48.552;9.370;2022-11-20T12:24:15;8.30;99.90
4602;DHT22;2313;48.552;9.370;2022-11-20T12:29:09;8.20;99.90
4602;DHT22;2313;48.552;9.370;2022-11-20T12:34:18;8.30;99.90
4602;DHT22;2313;48.552;9.370;2022-11-20T12:36:56;8.30;99.90
4602;DHT22;2313;48.552;9.370;2022-11-20T12:39:30;8.20;99.90
4602;DHT22;2313;48.552;9.370;2022-11-20T12:50:32;8.00;99.90
4602;DHT22;2313;48.552;9.370;2022-11-20T12:53:07;8.00;99.90
4602;DHT22;2313;48.552;9.370;2022-11-20T13:07:22;8.40;99.90
4602;DHT22;2313;48.552;9.370;2022-11-20T13:09:50;8.50;99.90
4602;DHT22;2313;48.552;9.370;2022-11-20T13:14:52;8.40;99.90
4602;DHT22;2313;48.552;9.370;2022-11-20T13:18:04;8.50;99.90
4602;DHT22;2313;48.552;9.370;2022-11-20T13:20:16;8.50;99.90
4602;DHT22;2313;48.552;9.370;2022-11-20T13:22:47;8.40;99.90
4602;DHT22;2313;48.552;9.370;2022-11-20T13:25:42;8.30;99.90
4602;DHT22;2313;48.552;9.370;2022-11-20T13:30:49;8.30;99.90
4602;DHT22;2313;48.552;9.370;2022-11-20T13:33:43;8.20;99.90
4602;DHT22;2313;48.552;9.370;2022-11-20T13:36:27;8.20;99.90
4602;DHT22;2313;48.552;9.370;2022-11-20T13:38:55;8.20;99.90
4602;DHT22;2313;48.552;9.370;2022-11-20T13:41:31;8.10;99.90
4602;DHT22;2313;48.552;9.370;2022-11-20T13:44:05;8.20;99.90
4602;DHT22;2313;48.552;9.370;2022-11-20T13:46:41;8.00;99.90
4602;DHT22;2313;48.552;9.370;2022-11-20T13:49:15;8.00;99.90
4602;DHT22;2313;48.552;9.370;2022-11-20T13:54:44;7.80;99.90
4602;DHT22;2313;48.552;9.370;2022-11-20T13:59:58;7.80;99.90
4602;DHT22;2313;48.552;9.370;2022-11-20T14:02:29;7.80;99.90
4602;DHT22;2313;48.552;9.370;2022-11-20T14:04:57;7.60;99.90
4602;DHT22;2313;48.552;9.370;2022-11-20T14:07:31;7.60;99.90
4602;DHT22;2313;48.552;9.370;2022-11-20T14:09:58;7.60;99.90
4602;DHT22;2313;48.552;9.370;2022-11-20T14:12:32;7.60;99.90
4602;DHT22;2313;48.552;9.370;2022-11-20T14:14:58;7.60;99.90
4602;DHT22;2313;48.552;9.370;2022-11-20T14:17:33;7.60;99.90
4602;DHT22;2313;48.552;9.370;2022-11-20T14:20:11;7.60;99.90
4602;DHT22;2313;48.552;9.370;2022-11-20T14:22:37;7.60;99.90
4602;DHT22;2313;48.552;9.370;2022-11-20T14:27:40;7.60;99.90
4602;DHT22;2313;48.552;9.370;2022-11-20T14:30:18;7.50;99.90
4602;DHT22;2313;48.552;9.370;2022-11-20T14:32:46;7.40;99.90
4602;DHT22;2313;48.552;9.370;2022-11-20T14:35:26;7.40;99.90
4602;DHT22;2313;48.552;9.370;2022-11-20T14:37:52;7.30;99.90
4602;DHT22;2313;48.552;9.370;2022-11-20T14:40:30;7.30;99.90
4602;DHT22;2313;48.552;9.370;2022-11-20T14:42:58;7.30;99.90
4602;DHT22;2313;48.552;9.370;2022-11-20T14:45:24;7.30;99.90
4602;DHT22;2313;48.552;9.370;2022-11-20T14:47:53;7.30;99.90
4602;DHT22;2313;48.552;9.370;2022-11-20T14:50:23;7.30;99.90
4602;DHT22;2313;48.552;9.370;2022-11-20T14:52:56;7.40;99.90
4602;DHT22;2313;48.552;9.370;2022-11-20T14:58:18;7.30;99.90
4602;DHT22;2313;48.552;9.370;2022-11-20T15:00:54;7.30;99.90
4602;DHT22;2313;48.552;9.370;2022-11-20T15:03:20;7.40;99.90
4602;DHT22;2313;48.552;9.370;2022-11-20T15:05:48;7.20;99.90
4602;DHT22;2313;48.552;9.370;2022-11-20T15:08:15;7.20;99.90
4602;DHT22;2313;48.552;9.370;2022-11-20T15:10:51;7.20;99.90
4602;DHT22;2313;48.552;9.370;2022-11-20T15:13:33;7.20;99.90
4602;DHT22;2313;48.552;9.370;2022-11-20T15:16:04;7.00;99.90
4602;DHT22;2313;48.552;9.370;2022-11-20T15:18:39;6.90;99.90
4602;DHT22;2313;48.552;9.370;2022-11-20T15:21:14;6.70;99.90
4602;DHT22;2313;48.552;9.370;2022-11-20T15:23:41;6.70;99.90
4602;DHT22;2313;48.552;9.370;2022-11-20T15:26:07;6.70;99.90
4602;DHT22;2313;48.552;9.370;2022-11-20T15:28:36;6.80;99.90
4602;DHT22;2313;48.552;9.370;2022-11-20T15:31:03;6.80;99.90
4602;DHT22;2313;48.552;9.370;2022-11-20T15:33:30;6.90;99.90
4602;DHT22;2313;48.552;9.370;2022-11-20T15:35:56;6.80;99.90
4602;DHT22;2313;48.552;9.370;2022-11-20T15:38:21;6.80;99.90
4602;DHT22;2313;48.552;9.370;2022-11-20T15:40:47;6.80;99.90
4602;DHT22;2313;48.552;9.370;2022-11-20T15:43:13;6.70;99.90
4602;DHT22;2313;48.552;9.370;2022-11-20T15:45:45;6.80;99.90
4602;DHT22;2313;48.552;9.370;2022-11-20T15:48:18;6.80;99.90
4602;DHT22;2313;48.552;9.370;2022-11-20T15:50:54;6.80;99.90
4602;DHT22;2313;48.552;9.370;2022-11-20T15:53:22;6.80;99.90
4602;DHT22;2313;48.552;9.370;2022-11-20T15:55:48;6.90;99.90
4602;DHT22;2313;48.552;9.370;2022-11-20T15:58:14;6.80;99.90
4602;DHT22;2313;48.552;9.370;2022-11-20T16:00:42;6.70;99.90
4602;DHT22;2313;48.552;9.370;2022-11-20T16:03:10;6.70;99.90
4602;DHT22;2313;48.552;9.370;2022-11-20T16:05:36;6.60;99.90
4602;DHT22;2313;48.552;9.370;2022-11-20T16:08:01;6.60;99.90
4602;DHT22;2313;48.552;9.370;2022-11-20T16:10:27;6.50;99.90
4602;DHT22;2313;48.552;9.370;2022-11-20T16:12:52;6.30;99.90
4602;DHT22;2313;48.552;9.370;2022-11-20T16:15:37;6.10;99.90
4602;DHT22;2313;48.552;9.370;2022-11-20T16:18:18;6.00;99.90
4602;DHT22;2313;48.552;9.370;2022-11-20T16:20:46;6.00;99.90
4602;DHT22;2313;48.552;9.370;2022-11-20T16:23:12;6.10;99.90
4602;DHT22;2313;48.552;9.370;2022-11-20T16:25:38;5.90;99.90
4602;DHT22;2313;48.552;9.370;2022-11-20T16:28:04;5.90;99.90
4602;DHT22;2313;48.552;9.370;2022-11-20T16:30:31;5.80;99.90
4602;DHT22;2313;48.552;9.370;2022-11-20T16:32:58;5.90;99.90
4602;DHT22;2313;48.552;9.370;2022-11-20T16:35:26;6.00;99.90
4602;DHT22;2313;48.552;9.370;2022-11-20T16:37:53;6.30;99.90
4602;DHT22;2313;48.552;9.370;2022-11-20T16:40:19;6.20;99.90
4602;DHT22;2313;48.552;9.370;2022-11-20T16:42:44;6.30;99.90
4602;DHT22;2313;48.552;9.370;2022-11-20T16:45:11;6.20;99.90
4602;DHT22;2313;48.552;9.370;2022-11-20T16:47:36;6.30;99.90
4602;DHT22;2313;48.552;9.370;2022-11-20T16:50:04;6.50;99.90
4602;DHT22;2313;48.552;9.370;2022-11-20T16:52:30;6.40;99.90
4602;DHT22;2313;48.552;9.370;2022-11-20T16:54:56;6.50;99.90
4602;DHT22;2313;48.552;9.370;2022-11-20T16:57:21;6.60;99.90
4602;DHT22;2313;48.552;9.370;2022-11-20T16:59:48;6.60;99.90
4602;DHT22;2313;48.552;9.370;2022-11-20T17:02:13;6.60;99.90
4602;DHT22;2313;48.552;9.370;2022-11-20T17:04:39;6.60;99.90
4602;DHT22;2313;48.552;9.370;2022-11-20T17:07:06;6.70;99.90
4602;DHT22;2313;48.552;9.370;2022-11-20T17:09:31;6.70;99.90
4602;DHT22;2313;48.552;9.370;2022-11-20T17:11:57;6.70;99.90
4602;DHT22;2313;48.552;9.370;2022-11-20T17:14:23;6.70;99.90
4602;DHT22;2313;48.552;9.370;2022-11-20T17:16:48;6.70;99.90
4602;DHT22;2313;48.552;9.370;2022-11-20T17:19:14;6.80;99.90
4602;DHT22;2313;48.552;9.370;2022-11-20T17:21:39;6.80;99.90
4602;DHT22;2313;48.552;9.370;2022-11-20T17:24:10;6.80;99.90
4602;DHT22;2313;48.552;9.370;2022-11-20T17:26:39;6.80;99.90
4602;DHT22;2313;48.552;9.370;2022-11-20T17:29:23;6.90;99.90
4602;DHT22;2313;48.552;9.370;2022-11-20T17:31:49;6.80;99.90
4602;DHT22;2313;48.552;9.370;2022-11-20T17:34:15;6.90;99.90
4602;DHT22;2313;48.552;9.370;2022-11-20T17:36:42;6.90;99.90
4602;DHT22;2313;48.552;9.370;2022-11-20T17:39:12;6.90;99.90
4602;DHT22;2313;48.552;9.370;2022-11-20T17:41:38;6.90;99.90
4602;DHT22;2313;48.552;9.370;2022-11-20T17:44:04;6.90;99.90
4602;DHT22;2313;48.552;9.370;2022-11-20T17:46:31;6.80;99.90
4602;DHT22;2313;48.552;9.370;2022-11-20T17:48:58;7.00;99.90
4602;DHT22;2313;48.552;9.370;2022-11-20T17:51:29;7.00;99.90
4602;DHT22;2313;48.552;9.370;2022-11-20T17:53:58;7.00;99.90
4602;DHT22;2313;48.552;9.370;2022-11-20T17:56:25;7.00;99.90
4602;DHT22;2313;48.552;9.370;2022-11-20T17:59:11;7.00;99.90
4602;DHT22;2313;48.552;9.370;2022-11-20T18:01:38;7.00;99.90
4602;DHT22;2313;48.552;9.370;2022-11-20T18:04:04;7.10;99.90
4602;DHT22;2313;48.552;9.370;2022-11-20T18:06:30;7.10;99.90
4602;DHT22;2313;48.552;9.370;2022-11-20T18:09:00;7.00;99.90